createdAt,value
2019-03-24T00:00:46.385Z,56.90
2019-03-24T00:03:16.261Z,58.37
2019-03-24T00:05:46.109Z,58.63
2019-03-24T00:08:15.781Z,57.57
2019-03-24T00:10:45.533Z,58.40
2019-03-24T00:13:15.270Z,55.77
2019-03-24T00:15:45.034Z,58.20
2019-03-24T00:18:15.142Z,55.00
2019-03-24T00:20:44.849Z,59.60
2019-03-24T00:23:14.717Z,60.10
2019-03-24T00:25:44.380Z,55.20
2019-03-24T00:28:14.359Z,58.73
2019-03-24T00:30:44.114Z,57.20
2019-03-24T00:33:13.723Z,58.80
2019-03-24T00:35:43.488Z,54.83
2019-03-24T00:38:13.357Z,58.63
2019-03-24T00:40:43.078Z,57.90
2019-03-24T00:43:12.717Z,58.23
2019-03-24T00:45:42.473Z,57.83
2019-03-24T00:48:12.100Z,60.77
2019-03-24T00:50:42.139Z,56.37
2019-03-24T00:53:14.116Z,58.80
2019-03-24T00:55:43.703Z,57.50
2019-03-24T00:58:14.617Z,57.73
2019-03-24T01:00:45.777Z,57.57
2019-03-24T01:03:15.955Z,58.40
2019-03-24T01:05:46.353Z,55.57
2019-03-24T01:08:16.117Z,56.70
2019-03-24T01:10:45.693Z,58.33
2019-03-24T01:13:15.900Z,56.10
2019-03-24T01:15:48.086Z,57.27
2019-03-24T01:18:17.516Z,54.07
2019-03-24T01:20:47.153Z,54.50
2019-03-24T01:23:16.753Z,57.50
2019-03-24T01:25:46.640Z,56.60
2019-03-24T01:28:16.241Z,51.40
2019-03-24T01:30:45.975Z,56.03
2019-03-24T01:33:15.809Z,51.87
2019-03-24T01:35:45.462Z,51.60
2019-03-24T01:38:15.078Z,56.37
2019-03-24T01:40:44.840Z,54.80
2019-03-24T01:43:14.409Z,54.17
2019-03-24T01:45:44.215Z,55.07
2019-03-24T01:48:13.796Z,55.17
2019-03-24T01:50:43.817Z,53.77
2019-03-24T01:53:13.411Z,56.40
2019-03-24T01:55:43.216Z,52.43
2019-03-24T01:58:12.839Z,54.20
2019-03-24T02:00:42.574Z,52.60
2019-03-24T02:03:12.147Z,51.17
2019-03-24T02:05:41.848Z,52.63
2019-03-24T02:08:12.096Z,52.63
2019-03-24T02:10:42.326Z,54.80
2019-03-24T02:13:11.944Z,52.53
2019-03-24T02:15:41.758Z,56.33
2019-03-24T02:18:11.448Z,50.70
2019-03-24T02:20:41.259Z,53.93
2019-03-24T02:23:10.875Z,47.47
2019-03-24T02:25:40.929Z,51.40
2019-03-24T02:28:10.774Z,51.77
2019-03-24T02:30:40.369Z,49.90
2019-03-24T02:33:10.264Z,53.77
2019-03-24T02:35:39.983Z,53.83
2019-03-24T02:38:09.861Z,52.90
2019-03-24T02:40:39.829Z,53.40
2019-03-24T02:43:09.941Z,51.80
2019-03-24T02:45:40.017Z,49.77
2019-03-24T02:48:09.832Z,53.20
2019-03-24T02:50:39.785Z,51.50
2019-03-24T02:53:09.397Z,51.20
2019-03-24T02:55:39.122Z,48.70
2019-03-24T02:58:08.792Z,51.50
2019-03-24T03:00:38.792Z,49.67
2019-03-24T03:03:08.640Z,51.50
2019-03-24T03:05:38.197Z,48.07
2019-03-24T03:08:08.069Z,52.40
2019-03-24T03:10:37.845Z,53.27
2019-03-24T03:13:07.497Z,50.00
2019-03-24T03:15:37.082Z,49.03
2019-03-24T03:18:06.752Z,48.77
2019-03-24T03:20:36.455Z,50.07
2019-03-24T03:23:06.394Z,51.37
2019-03-24T03:25:36.015Z,49.20
2019-03-24T03:28:05.867Z,50.90
2019-03-24T03:30:35.436Z,49.80
2019-03-24T03:33:05.225Z,50.73
2019-03-24T03:35:34.762Z,51.33
2019-03-24T03:38:04.562Z,49.90
2019-03-24T03:40:34.326Z,50.83
2019-03-24T03:43:03.946Z,49.87
2019-03-24T03:45:33.677Z,48.90
2019-03-24T03:48:03.493Z,50.33
2019-03-24T03:50:33.057Z,51.20
2019-03-24T03:53:02.726Z,50.40
2019-03-24T03:55:32.313Z,50.20
2019-03-24T03:58:02.142Z,49.07
2019-03-24T04:00:35.848Z,51.57
2019-03-24T04:03:06.177Z,50.90
2019-03-24T04:05:35.739Z,49.83
2019-03-24T04:08:06.920Z,50.90
2019-03-24T04:10:36.514Z,51.73
2019-03-24T04:13:06.206Z,52.90
2019-03-24T04:15:36.510Z,48.87
2019-03-24T04:18:06.232Z,49.13
2019-03-24T04:20:36.903Z,49.13
2019-03-24T04:23:06.909Z,51.27
2019-03-24T04:25:36.645Z,50.03
2019-03-24T04:28:06.497Z,50.30
2019-03-24T04:30:36.656Z,49.47
2019-03-24T04:33:06.462Z,47.90
2019-03-24T04:35:36.093Z,50.03
2019-03-24T04:38:05.931Z,47.37
2019-03-24T04:40:35.670Z,50.43
2019-03-24T04:43:05.234Z,46.97
2019-03-24T04:45:35.260Z,48.13
2019-03-24T04:48:05.102Z,49.40
2019-03-24T04:50:34.697Z,47.37
2019-03-24T04:53:04.624Z,49.40
2019-03-24T04:55:34.812Z,46.40
2019-03-24T04:58:04.534Z,44.10
2019-03-24T05:00:39.009Z,47.67
2019-03-24T05:03:08.551Z,48.00
2019-03-24T05:05:38.768Z,44.57
2019-03-24T05:08:08.554Z,46.77
2019-03-24T05:10:39.003Z,46.77
2019-03-24T05:13:08.592Z,46.30
2019-03-24T05:15:38.365Z,45.07
2019-03-24T05:18:08.156Z,47.80
2019-03-24T05:20:37.740Z,47.13
2019-03-24T05:23:07.412Z,46.83
2019-03-24T05:25:37.261Z,47.07
2019-03-24T05:28:06.856Z,46.97
2019-03-24T05:30:36.591Z,46.27
2019-03-24T05:33:06.419Z,47.47
2019-03-24T05:35:36.146Z,46.57
2019-03-24T05:38:05.825Z,47.90
2019-03-24T05:40:35.423Z,46.37
2019-03-24T05:43:05.138Z,45.70
2019-03-24T05:45:34.757Z,49.50
2019-03-24T05:48:04.644Z,48.10
2019-03-24T05:50:34.706Z,47.23
2019-03-24T05:53:04.546Z,45.37
2019-03-24T05:55:34.157Z,46.07
2019-03-24T05:58:03.933Z,48.57
2019-03-24T06:00:33.517Z,47.97
2019-03-24T06:03:03.249Z,44.97
2019-03-24T06:05:32.813Z,45.43
2019-03-24T06:08:02.655Z,47.10
2019-03-24T06:10:32.469Z,47.80
2019-03-24T06:13:02.224Z,49.77
2019-03-24T06:15:31.839Z,48.40
2019-03-24T06:18:01.603Z,47.33
2019-03-24T06:20:31.416Z,47.73
2019-03-24T06:23:01.173Z,48.50
2019-03-24T06:25:30.766Z,45.90
2019-03-24T06:28:00.479Z,48.97
2019-03-24T06:30:30.103Z,44.37
2019-03-24T06:32:59.920Z,45.80
2019-03-24T06:35:29.814Z,46.90
2019-03-24T06:37:59.562Z,45.13
2019-03-24T06:40:29.407Z,47.83
2019-03-24T06:42:59.190Z,47.17
2019-03-24T06:45:29.136Z,45.97
2019-03-24T06:47:58.777Z,45.87
2019-03-24T06:50:28.485Z,47.90
2019-03-24T06:52:58.049Z,47.57
2019-03-24T06:55:28.247Z,45.00
2019-03-24T06:57:58.062Z,41.20
2019-03-24T07:00:27.655Z,43.83
2019-03-24T07:02:57.575Z,45.37
2019-03-24T07:05:27.455Z,44.03
2019-03-24T07:07:57.633Z,45.10
2019-03-24T07:10:27.284Z,45.90
2019-03-24T07:12:57.075Z,46.77
2019-03-24T07:15:26.879Z,42.03
2019-03-24T07:17:56.666Z,45.50
2019-03-24T07:20:26.225Z,43.13
2019-03-24T07:22:55.850Z,41.60
2019-03-24T07:25:25.497Z,48.20
2019-03-24T07:27:55.392Z,47.83
2019-03-24T07:30:25.127Z,44.53
2019-03-24T07:32:54.969Z,44.90
2019-03-24T07:35:24.592Z,44.90
2019-03-24T07:37:54.226Z,47.70
2019-03-24T07:40:23.837Z,44.30
2019-03-24T07:42:53.560Z,46.67
2019-03-24T07:45:23.733Z,47.97
2019-03-24T07:47:54.085Z,47.70
2019-03-24T07:50:23.767Z,49.13
2019-03-24T07:52:53.388Z,48.63
2019-03-24T07:55:23.246Z,50.60
2019-03-24T07:57:52.950Z,48.77
2019-03-24T08:00:34.895Z,50.90
2019-03-24T08:03:04.510Z,51.40
2019-03-24T08:05:35.348Z,52.50
2019-03-24T08:08:05.299Z,48.23
2019-03-24T08:10:35.081Z,49.83
2019-03-24T08:13:04.871Z,50.07
2019-03-24T08:15:34.485Z,52.83
2019-03-24T08:18:04.109Z,54.03
2019-03-24T08:20:33.727Z,52.07
2019-03-24T08:23:03.532Z,51.17
2019-03-24T08:25:33.788Z,51.40
2019-03-24T08:28:03.964Z,49.10
2019-03-24T08:30:35.546Z,52.10
2019-03-24T08:33:05.557Z,51.50
2019-03-24T08:35:35.157Z,49.87
2019-03-24T08:38:05.076Z,53.83
2019-03-24T08:40:34.707Z,50.67
2019-03-24T08:43:04.615Z,50.27
2019-03-24T08:45:34.480Z,49.70
2019-03-24T08:48:04.135Z,50.30
2019-03-24T08:50:34.110Z,48.70
2019-03-24T08:53:03.958Z,49.07
2019-03-24T08:55:34.188Z,50.17
2019-03-24T08:58:03.752Z,47.87
2019-03-24T09:00:33.593Z,46.30
2019-03-24T09:03:03.775Z,46.40
2019-03-24T09:05:33.861Z,48.37
2019-03-24T09:08:04.287Z,49.30
2019-03-24T09:10:34.053Z,49.20
2019-03-24T09:13:04.045Z,48.80
2019-03-24T09:15:33.804Z,49.90
2019-03-24T09:18:03.611Z,47.33
2019-03-24T09:20:41.224Z,48.07
2019-03-24T09:23:04.869Z,50.20
2019-03-24T09:25:34.759Z,46.70
2019-03-24T09:28:04.918Z,48.10
2019-03-24T09:30:37.223Z,48.00
2019-03-24T09:33:07.223Z,46.03
2019-03-24T09:35:36.999Z,47.50
2019-03-24T09:38:06.848Z,46.70
2019-03-24T09:40:36.904Z,48.13
2019-03-24T09:43:07.184Z,45.33
2019-03-24T09:45:37.298Z,44.80
2019-03-24T09:48:07.687Z,46.20
2019-03-24T09:50:37.660Z,47.23
2019-03-24T09:53:07.326Z,46.73
2019-03-24T09:55:37.203Z,45.17
2019-03-24T09:58:06.956Z,45.87
2019-03-24T10:00:36.892Z,44.77
2019-03-24T10:03:06.888Z,44.90
2019-03-24T10:05:36.503Z,45.77
2019-03-24T10:08:06.350Z,44.67
2019-03-24T10:10:36.231Z,46.23
2019-03-24T10:13:06.424Z,45.90
2019-03-24T10:15:36.263Z,44.03
2019-03-24T10:18:06.073Z,46.13
2019-03-24T10:20:36.166Z,44.50
2019-03-24T10:23:05.774Z,42.87
2019-03-24T10:25:35.519Z,42.73
2019-03-24T10:28:05.130Z,43.33
2019-03-24T10:30:35.165Z,42.33
2019-03-24T10:33:04.789Z,45.30
2019-03-24T10:35:34.605Z,41.37
2019-03-24T10:38:04.422Z,43.20
2019-03-24T10:40:34.631Z,42.50
2019-03-24T10:43:04.299Z,41.13
2019-03-24T10:45:34.157Z,44.70
2019-03-24T10:48:03.974Z,43.17
2019-03-24T10:50:33.707Z,39.47
2019-03-24T10:53:03.777Z,43.17
2019-03-24T10:55:33.531Z,42.83
2019-03-24T10:58:03.265Z,42.60
2019-03-24T11:00:43.143Z,41.07
2019-03-24T11:03:12.805Z,42.53
2019-03-24T11:05:42.828Z,41.27
2019-03-24T11:08:13.764Z,40.40
2019-03-24T11:10:43.468Z,39.43
2019-03-24T11:13:13.228Z,40.80
2019-03-24T11:15:42.954Z,40.47
2019-03-24T11:18:12.783Z,42.43
2019-03-24T11:20:42.771Z,41.63
2019-03-24T11:23:12.489Z,40.20
2019-03-24T11:25:42.421Z,41.17
2019-03-24T11:28:12.236Z,38.43
2019-03-24T11:30:42.042Z,40.83
2019-03-24T11:33:11.843Z,42.10
2019-03-24T11:35:41.511Z,41.23
2019-03-24T11:38:11.460Z,41.90
2019-03-24T11:40:41.504Z,39.90
2019-03-24T11:43:11.136Z,40.00
2019-03-24T11:45:41.383Z,41.60
2019-03-24T11:48:11.309Z,42.50
2019-03-24T11:50:41.227Z,39.97
2019-03-24T11:53:11.085Z,40.33
2019-03-24T11:55:41.007Z,38.93
2019-03-24T11:58:10.967Z,41.70
2019-03-24T12:00:41.016Z,38.43
2019-03-24T12:03:11.499Z,41.67
2019-03-24T12:05:41.391Z,38.93
2019-03-24T12:08:11.013Z,40.37
2019-03-24T12:10:40.819Z,39.60
2019-03-24T12:13:10.618Z,41.40
2019-03-24T12:15:40.567Z,41.20
2019-03-24T12:18:10.211Z,40.13
2019-03-24T12:20:39.868Z,39.73
2019-03-24T12:23:09.483Z,39.63
2019-03-24T12:25:39.389Z,41.57
2019-03-24T12:28:09.166Z,40.70
2019-03-24T12:30:38.831Z,42.60
2019-03-24T12:33:08.732Z,43.73
2019-03-24T12:35:38.801Z,41.00
2019-03-24T12:38:08.649Z,43.37
2019-03-24T12:40:38.411Z,42.80
2019-03-24T12:43:18.699Z,41.40
2019-03-24T12:45:39.691Z,42.13
2019-03-24T12:48:09.475Z,42.77
2019-03-24T12:50:39.474Z,41.73
2019-03-24T12:53:09.263Z,43.17
2019-03-24T12:55:38.882Z,43.07
2019-03-24T12:58:08.699Z,43.67
2019-03-24T13:00:40.167Z,43.77
2019-03-24T13:03:10.271Z,44.10
2019-03-24T13:05:40.075Z,43.77
2019-03-24T13:08:17.259Z,42.37
2019-03-24T13:10:47.683Z,43.47
2019-03-24T13:13:17.305Z,44.90
2019-03-24T13:15:47.342Z,41.03
2019-03-24T13:18:17.012Z,41.80
2019-03-24T13:20:47.204Z,41.50
2019-03-24T13:23:17.404Z,42.17
2019-03-24T13:25:47.177Z,42.60
2019-03-24T13:28:16.904Z,42.07
2019-03-24T13:30:47.228Z,41.50
2019-03-24T13:33:16.879Z,42.50
2019-03-24T13:35:48.322Z,42.30
2019-03-24T13:38:17.969Z,42.70
2019-03-24T13:40:47.631Z,42.93
2019-03-24T13:43:17.446Z,43.47
2019-03-24T13:45:47.308Z,42.30
2019-03-24T13:48:17.142Z,40.90
2019-03-24T13:50:46.831Z,41.47
2019-03-24T13:53:16.593Z,41.00
2019-03-24T13:55:46.298Z,40.00
2019-03-24T13:58:15.884Z,40.70
2019-03-24T14:00:45.558Z,39.60
2019-03-24T14:03:15.223Z,37.90
2019-03-24T14:05:44.879Z,40.20
2019-03-24T14:08:14.738Z,39.97
2019-03-24T14:10:44.531Z,38.80
2019-03-24T14:13:14.187Z,40.40
2019-03-24T14:15:43.919Z,40.80
2019-03-24T14:18:13.521Z,40.57
2019-03-24T14:20:44.076Z,42.67
2019-03-24T14:23:14.038Z,40.73
2019-03-24T14:25:44.036Z,39.67
2019-03-24T14:28:13.853Z,40.70
2019-03-24T14:30:46.336Z,39.27
2019-03-24T14:33:16.366Z,39.03
2019-03-24T14:35:46.104Z,42.00
2019-03-24T14:38:15.839Z,40.63
2019-03-24T14:40:45.854Z,40.53
2019-03-24T14:43:15.613Z,37.07
2019-03-24T14:45:45.432Z,38.00
2019-03-24T14:48:15.014Z,40.27
2019-03-24T14:50:54.053Z,39.97
2019-03-24T14:53:16.163Z,38.70
2019-03-24T14:55:46.110Z,38.57
2019-03-24T14:58:15.728Z,37.57
2019-03-24T15:00:45.813Z,39.40
2019-03-24T15:03:15.608Z,40.37
2019-03-24T15:05:45.440Z,40.70
2019-03-24T15:08:15.227Z,37.67
2019-03-24T15:10:45.148Z,39.53
2019-03-24T15:13:15.455Z,40.50
2019-03-24T15:15:45.199Z,37.50
2019-03-24T15:18:14.987Z,37.10
2019-03-24T15:20:44.642Z,41.80
2019-03-24T15:23:14.310Z,39.37
2019-03-24T15:25:43.951Z,37.30
2019-03-24T15:28:13.653Z,40.00
2019-03-24T15:30:43.500Z,39.33
2019-03-24T15:33:13.259Z,36.70
2019-03-24T15:35:43.098Z,39.50
2019-03-24T15:38:13.117Z,38.40
2019-03-24T15:40:42.752Z,38.27
2019-03-24T15:43:12.393Z,38.97
2019-03-24T15:45:42.120Z,39.77
2019-03-24T15:48:11.780Z,38.40
2019-03-24T15:50:41.554Z,40.10
2019-03-24T15:53:11.689Z,41.50
2019-03-24T15:55:41.529Z,41.60
2019-03-24T15:58:11.279Z,41.27
2019-03-24T16:00:46.154Z,43.03
2019-03-24T16:03:15.804Z,43.13
2019-03-24T16:05:45.637Z,45.00
2019-03-24T16:08:15.814Z,42.37
2019-03-24T16:10:46.136Z,41.10
2019-03-24T16:13:16.155Z,38.40
2019-03-24T16:15:45.973Z,35.27
2019-03-24T16:18:15.781Z,41.97
2019-03-24T16:20:46.153Z,41.03
2019-03-24T16:23:16.088Z,38.40
2019-03-24T16:25:46.229Z,39.17
2019-03-24T16:28:15.875Z,38.80
2019-03-24T16:30:45.700Z,38.17
2019-03-24T16:33:15.897Z,42.13
2019-03-24T16:35:46.066Z,40.13
2019-03-24T16:38:15.843Z,41.20
2019-03-24T16:40:45.813Z,39.37
2019-03-24T16:43:15.576Z,42.17
2019-03-24T16:45:47.282Z,38.07
2019-03-24T16:48:17.149Z,35.70
2019-03-24T16:50:47.330Z,38.73
2019-03-24T16:53:17.161Z,41.77
2019-03-24T16:55:46.867Z,38.00
2019-03-24T16:58:16.494Z,38.93
2019-03-24T17:00:46.443Z,35.70
2019-03-24T17:03:16.290Z,35.40
2019-03-24T17:05:46.514Z,37.63
2019-03-24T17:08:16.335Z,37.77
2019-03-24T17:10:46.361Z,37.93
2019-03-24T17:13:16.432Z,36.30
2019-03-24T17:15:46.117Z,37.17
2019-03-24T17:18:15.979Z,34.63
2019-03-24T17:20:46.056Z,37.23
2019-03-24T17:23:15.905Z,32.93
2019-03-24T17:25:45.743Z,34.67
2019-03-24T17:28:15.452Z,34.13
2019-03-24T17:30:45.107Z,31.77
2019-03-24T17:33:15.075Z,31.17
2019-03-24T17:35:45.175Z,32.07
2019-03-24T17:38:14.919Z,34.60
2019-03-24T17:40:44.845Z,30.50
2019-03-24T17:43:14.941Z,31.37
2019-03-24T17:45:45.362Z,29.87
2019-03-24T17:48:15.077Z,30.80
2019-03-24T17:50:44.867Z,29.93
2019-03-24T17:53:14.781Z,29.97
2019-03-24T17:55:44.620Z,30.17
2019-03-24T17:58:14.886Z,29.03
2019-03-24T18:00:47.528Z,30.20
2019-03-24T18:03:17.337Z,32.37
2019-03-24T18:05:47.009Z,30.70
2019-03-24T18:08:17.071Z,29.90
2019-03-24T18:10:46.771Z,25.30
2019-03-24T18:13:17.029Z,26.43
2019-03-24T18:15:47.194Z,26.93
2019-03-24T18:18:16.951Z,23.07
2019-03-24T18:20:46.809Z,26.70
2019-03-24T18:23:16.848Z,24.90
2019-03-24T18:25:46.856Z,22.47
2019-03-24T18:28:16.687Z,22.70
2019-03-24T18:30:47.551Z,22.87
2019-03-24T18:33:17.136Z,21.53
2019-03-24T18:35:47.072Z,21.60
2019-03-24T18:38:16.944Z,20.73
2019-03-24T18:40:46.641Z,19.73
2019-03-24T18:43:16.687Z,18.57
2019-03-24T18:45:46.623Z,20.90
2019-03-24T18:48:16.622Z,20.03
2019-03-24T18:50:46.925Z,16.97
2019-03-24T18:53:17.063Z,17.60
2019-03-24T18:55:46.867Z,18.23
2019-03-24T18:58:16.604Z,17.33
2019-03-24T19:00:46.414Z,17.80
2019-03-24T19:03:16.183Z,17.27
2019-03-24T19:05:45.848Z,16.93
2019-03-24T19:08:15.623Z,14.73
2019-03-24T19:10:45.288Z,15.27
2019-03-24T19:13:15.074Z,16.63
2019-03-24T19:15:45.072Z,14.70
2019-03-24T19:18:15.129Z,14.23
2019-03-24T19:20:44.863Z,14.40
2019-03-24T19:23:14.647Z,15.40
2019-03-24T19:25:44.426Z,16.30
2019-03-24T19:28:14.202Z,13.87
2019-03-24T19:30:43.986Z,15.50
2019-03-24T19:33:13.768Z,15.40
2019-03-24T19:35:43.423Z,14.77
2019-03-24T19:38:13.226Z,16.40
2019-03-24T19:40:43.091Z,14.70
2019-03-24T19:43:13.221Z,14.10
2019-03-24T19:45:43.041Z,15.13
2019-03-24T19:48:13.067Z,15.87
2019-03-24T19:50:43.448Z,14.67
2019-03-24T19:53:13.520Z,15.00
2019-03-24T19:55:43.389Z,14.10
2019-03-24T19:58:14.690Z,17.97
2019-03-24T20:00:44.988Z,17.53
2019-03-24T20:03:14.857Z,17.70
2019-03-24T20:05:45.036Z,18.87
2019-03-24T20:08:15.286Z,18.50
2019-03-24T20:10:45.870Z,18.57
2019-03-24T20:13:15.865Z,19.20
2019-03-24T20:15:45.995Z,17.53
2019-03-24T20:18:15.734Z,14.17
2019-03-24T20:20:45.719Z,16.30
2019-03-24T20:23:15.959Z,16.00
2019-03-24T20:25:46.243Z,17.00
2019-03-24T20:28:15.977Z,15.43
2019-03-24T20:30:45.660Z,16.70
2019-03-24T20:33:15.741Z,18.43
2019-03-24T20:35:45.442Z,18.60
2019-03-24T20:38:15.316Z,17.00
2019-03-24T20:40:45.260Z,15.50
2019-03-24T20:43:15.532Z,15.90
2019-03-24T20:45:45.411Z,16.33
2019-03-24T20:48:15.177Z,15.13
2019-03-24T20:50:45.173Z,15.07
2019-03-24T20:53:18.386Z,14.60
2019-03-24T20:55:47.038Z,17.20
2019-03-24T20:58:17.183Z,17.37
2019-03-24T21:00:47.382Z,18.73
2019-03-24T21:03:18.917Z,19.20
2019-03-24T21:05:48.591Z,19.00
2019-03-24T21:08:18.274Z,20.07
2019-03-24T21:10:49.293Z,21.20
2019-03-24T21:13:19.961Z,21.77
2019-03-24T21:15:50.063Z,21.53
2019-03-24T21:18:19.761Z,22.10
2019-03-24T21:20:49.602Z,22.80
2019-03-24T21:23:29.062Z,23.33
2019-03-24T21:25:51.382Z,21.27
2019-03-24T21:28:21.457Z,20.40
2019-03-24T21:30:51.585Z,21.80
2019-03-24T21:33:21.513Z,23.50
2019-03-24T21:35:51.515Z,22.00
2019-03-24T21:38:21.525Z,22.57
2019-03-24T21:40:51.614Z,22.97
2019-03-24T21:43:21.872Z,23.47
2019-03-24T21:45:51.943Z,21.83
2019-03-24T21:48:21.685Z,25.27
2019-03-24T21:50:51.754Z,23.13
2019-03-24T21:53:21.662Z,23.97
2019-03-24T21:55:51.377Z,22.33
2019-03-24T21:58:21.159Z,24.40
2019-03-24T22:00:50.804Z,23.43
2019-03-24T22:03:20.682Z,24.00
2019-03-24T22:05:50.366Z,22.07
2019-03-24T22:08:20.764Z,25.43
2019-03-24T22:10:50.369Z,24.17
2019-03-24T22:13:20.294Z,23.17
2019-03-24T22:15:50.110Z,22.57
2019-03-24T22:18:19.799Z,26.77
2019-03-24T22:20:49.864Z,22.43
2019-03-24T22:23:19.708Z,24.20
2019-03-24T22:25:49.599Z,23.83
2019-03-24T22:28:19.489Z,22.97
2019-03-24T22:30:49.240Z,23.07
2019-03-24T22:33:19.004Z,22.30
2019-03-24T22:35:48.644Z,23.33
2019-03-24T22:38:18.663Z,23.63
2019-03-24T22:40:48.308Z,25.27
2019-03-24T22:43:17.996Z,22.17
2019-03-24T22:45:47.832Z,22.87
2019-03-24T22:48:18.158Z,23.07
2019-03-24T22:50:48.239Z,21.83
2019-03-24T22:53:17.958Z,24.37
2019-03-24T22:55:47.708Z,21.93
2019-03-24T22:58:17.918Z,24.80
2019-03-24T23:00:51.444Z,25.50
2019-03-24T23:03:24.911Z,24.63
2019-03-24T23:05:54.412Z,24.97
2019-03-24T23:08:25.454Z,24.53
2019-03-24T23:10:55.338Z,25.57
2019-03-24T23:13:25.086Z,23.63
2019-03-24T23:15:54.876Z,24.47
2019-03-24T23:18:24.836Z,25.37
2019-03-24T23:20:54.677Z,24.53
2019-03-24T23:23:24.304Z,24.77
2019-03-24T23:25:54.108Z,21.73
2019-03-24T23:28:23.816Z,23.00
2019-03-24T23:30:53.516Z,22.70
2019-03-24T23:33:23.148Z,21.10
2019-03-24T23:35:53.026Z,21.80
2019-03-24T23:38:23.000Z,20.00
2019-03-24T23:40:52.978Z,20.00
2019-03-24T23:43:22.790Z,18.27
2019-03-24T23:45:52.609Z,19.93
2019-03-24T23:48:22.261Z,15.43
2019-03-24T23:50:52.106Z,17.40
2019-03-24T23:53:22.185Z,16.27
2019-03-24T23:55:52.068Z,17.30
2019-03-24T23:58:21.937Z,15.67
